Time;durP1;ratioP1;P1;durP2;ratioP2;P2;SDS_P1;SDS_P2;PMS_P1;PMS_P2;Temp;Humidity;BMP_temperature;BMP_pressure;BME280_temperature;BME280_humidity;BME280_pressure;Samples;Min_cycle;Max_cycle;Signal;HPM_P1;HPM_P2
2021/11/28 00:01:22;;;;;;;;;;;0.00;99.90;;;;;;8346167;28;19919;-66
2021/11/28 00:05:25;;;;;;;;;;;-0.20;99.90;;;;;;8363784;28;19917;-66
2021/11/28 00:09:40;;;;;;;;;;;-0.20;99.90;;;;;;8365416;28;20028;-66
2021/11/28 00:13:50;;;;;;;;;;;-0.20;99.90;;;;;;8347004;28;19996;-66
2021/11/28 00:17:51;;;;;;;;;;;0.00;99.90;;;;;;8364979;28;20378;-66
2021/11/28 00:21:51;;;;;;;;;;;0.00;99.90;;;;;;8364699;28;19924;-66
2021/11/28 00:25:52;;;;;;;;;;;-0.10;99.90;;;;;;8358847;28;20350;-67
2021/11/28 00:29:52;;;;;;;;;;;0.00;99.90;;;;;;8339191;28;19936;-66
2021/11/28 00:33:53;;;;;;;;;;;0.10;99.90;;;;;;8331704;28;19916;-66
2021/11/28 00:37:53;;;;;;;;;;;0.00;99.90;;;;;;8313775;28;19909;-66
2021/11/28 00:41:54;;;;;;;;;;;-0.10;99.90;;;;;;8329733;28;19917;-66
2021/11/28 00:45:54;;;;;;;;;;;0.00;99.90;;;;;;8312842;28;19964;-67
2021/11/28 00:50:24;;;;;;;;;;;-0.10;99.90;;;;;;8330019;28;19963;-67
2021/11/28 00:54:26;;;;;;;;;;;0.00;99.90;;;;;;8311925;28;19909;-67
2021/11/28 00:58:27;;;;;;;;;;;0.00;99.90;;;;;;8341445;28;19917;-66
2021/11/28 01:02:27;;;;;;;;;;;-0.10;99.90;;;;;;8361769;28;20267;-66
2021/11/28 01:06:28;;;;;;;;;;;0.10;99.90;;;;;;8344187;28;19909;-66
2021/11/28 01:10:28;;;;;;;;;;;0.30;99.90;;;;;;8361800;28;19956;-66
2021/11/28 01:14:29;;;;;;;;;;;0.40;99.90;;;;;;8344500;28;19924;-66
2021/11/28 01:18:32;;;;;;;;;;;0.40;99.90;;;;;;8361283;22;19933;-63
2021/11/28 01:22:32;;;;;;;;;;;0.60;99.90;;;;;;8326933;28;20349;-65
2021/11/28 01:26:33;;;;;;;;;;;0.40;99.90;;;;;;8340273;28;19920;-65
2021/11/28 01:30:33;;;;;;;;;;;0.30;99.90;;;;;;8360996;28;19928;-65
2021/11/28 01:34:34;;;;;;;;;;;0.50;99.90;;;;;;8361566;28;19913;-65
2021/11/28 01:38:34;;;;;;;;;;;0.40;99.90;;;;;;8361325;28;19999;-65
2021/11/28 01:42:43;;;;;;;;;;;0.30;99.90;;;;;;8360500;28;20350;-65
2021/11/28 01:46:44;;;;;;;;;;;0.20;99.90;;;;;;8340862;28;19917;-64
2021/11/28 01:50:45;;;;;;;;;;;0.50;99.90;;;;;;8297191;28;20064;-64
2021/11/28 01:54:46;;;;;;;;;;;0.40;99.90;;;;;;8302481;28;19968;-64
2021/11/28 01:58:46;;;;;;;;;;;0.50;99.90;;;;;;8328460;28;20578;-64
2021/11/28 02:02:47;;;;;;;;;;;0.50;99.90;;;;;;8360589;28;19912;-64
2021/11/28 02:06:48;;;;;;;;;;;0.50;99.90;;;;;;8360030;28;19939;-64
2021/11/28 02:10:49;;;;;;;;;;;0.40;99.90;;;;;;8342114;28;19944;-64
2021/11/28 02:14:49;;;;;;;;;;;0.30;99.90;;;;;;8360269;28;19916;-65
2021/11/28 02:18:50;;;;;;;;;;;0.30;99.90;;;;;;8359052;28;19917;-64
2021/11/28 02:22:51;;;;;;;;;;;0.30;99.90;;;;;;8358532;28;19920;-64
2021/11/28 02:26:51;;;;;;;;;;;0.40;99.90;;;;;;8358536;28;19909;-64
2021/11/28 02:30:52;;;;;;;;;;;0.50;99.90;;;;;;8359612;28;19908;-64
2021/11/28 02:34:52;;;;;;;;;;;0.50;99.90;;;;;;8359748;28;19909;-64
2021/11/28 02:38:53;;;;;;;;;;;0.50;99.90;;;;;;8360214;28;19913;-64
2021/11/28 02:42:53;;;;;;;;;;;0.50;99.90;;;;;;8359344;28;20290;-65
2021/11/28 02:46:54;;;;;;;;;;;0.60;99.90;;;;;;8359444;28;20421;-64
2021/11/28 02:50:56;;;;;;;;;;;0.40;99.90;;;;;;8341545;28;19909;-64
2021/11/28 02:54:56;;;;;;;;;;;0.60;99.90;;;;;;8359339;28;19909;-64
2021/11/28 02:58:57;;;;;;;;;;;0.50;99.90;;;;;;8356765;28;19915;-64
2021/11/28 03:02:57;;;;;;;;;;;0.70;99.90;;;;;;8358835;28;19912;-64
2021/11/28 03:06:57;;;;;;;;;;;0.70;99.90;;;;;;8341155;28;20372;-64
2021/11/28 03:10:58;;;;;;;;;;;0.70;99.90;;;;;;8358294;28;20295;-64
2021/11/28 03:14:58;;;;;;;;;;;0.90;99.90;;;;;;8358853;28;19909;-64
2021/11/28 03:18:59;;;;;;;;;;;0.90;99.90;;;;;;8340745;28;19917;-64
2021/11/28 03:22:59;;;;;;;;;;;0.90;99.90;;;;;;8357956;28;19920;-65
2021/11/28 03:27:00;;;;;;;;;;;0.60;99.90;;;;;;8346477;28;20272;-64
2021/11/28 03:31:00;;;;;;;;;;;0.60;99.90;;;;;;8365197;28;19909;-64
2021/11/28 03:35:01;;;;;;;;;;;0.70;99.90;;;;;;8364156;28;20342;-65
2021/11/28 03:39:03;;;;;;;;;;;0.60;99.90;;;;;;8364877;28;20371;-64
2021/11/28 03:43:04;;;;;;;;;;;0.60;99.90;;;;;;8364514;28;19913;-65
2021/11/28 03:47:05;;;;;;;;;;;0.90;99.90;;;;;;8364623;28;19909;-64
2021/11/28 03:51:05;;;;;;;;;;;1.10;99.90;;;;;;8364788;28;19912;-65
2021/11/28 03:55:07;;;;;;;;;;;0.90;99.90;;;;;;8363894;28;19909;-65
2021/11/28 03:59:08;;;;;;;;;;;1.00;99.90;;;;;;8345234;28;19908;-64
2021/11/28 04:03:09;;;;;;;;;;;1.00;99.90;;;;;;8363983;28;19935;-65
2021/11/28 04:07:09;;;;;;;;;;;1.00;99.90;;;;;;8346397;28;19932;-64
2021/11/28 04:11:10;;;;;;;;;;;1.00;99.90;;;;;;8363756;28;19909;-64
2021/11/28 04:15:10;;;;;;;;;;;1.10;99.90;;;;;;8364238;28;20501;-64
2021/11/28 04:19:11;;;;;;;;;;;1.00;99.90;;;;;;8364034;28;19964;-64
2021/11/28 04:23:11;;;;;;;;;;;1.00;99.90;;;;;;8363471;28;19920;-65
2021/11/28 04:27:12;;;;;;;;;;;0.80;99.90;;;;;;8362300;28;19916;-64
2021/11/28 04:31:13;;;;;;;;;;;0.70;99.90;;;;;;8363764;28;20314;-64
2021/11/28 04:35:14;;;;;;;;;;;0.60;99.90;;;;;;8363128;28;20541;-64
2021/11/28 04:39:14;;;;;;;;;;;0.30;99.90;;;;;;8363385;28;20129;-64
2021/11/28 04:43:15;;;;;;;;;;;0.20;99.90;;;;;;8362699;28;19920;-64
2021/11/28 04:47:18;;;;;;;;;;;0.40;99.90;;;;;;8362600;28;19920;-63
2021/11/28 04:51:18;;;;;;;;;;;0.50;99.90;;;;;;8362783;28;19963;-64
2021/11/28 04:55:19;;;;;;;;;;;0.50;99.90;;;;;;8360962;28;21078;-64
2021/11/28 04:59:20;;;;;;;;;;;0.50;99.90;;;;;;8362205;28;20401;-65
2021/11/28 05:03:20;;;;;;;;;;;0.60;99.90;;;;;;8362312;28;19913;-64
2021/11/28 05:07:20;;;;;;;;;;;0.50;99.90;;;;;;8362808;28;19913;-64
2021/11/28 05:11:21;;;;;;;;;;;0.40;99.90;;;;;;8361618;28;19913;-64
2021/11/28 05:15:21;;;;;;;;;;;0.70;99.90;;;;;;8362050;28;20027;-65
2021/11/28 05:19:23;;;;;;;;;;;0.50;99.90;;;;;;8361946;28;19966;-64
2021/11/28 05:23:23;;;;;;;;;;;0.50;99.90;;;;;;8361323;28;19917;-64
2021/11/28 05:27:24;;;;;;;;;;;0.60;99.90;;;;;;8360172;28;19909;-64
2021/11/28 05:31:25;;;;;;;;;;;0.60;99.90;;;;;;8361742;28;19909;-64
2021/11/28 05:35:25;;;;;;;;;;;0.50;99.90;;;;;;8361273;28;20359;-64
2021/11/28 05:39:26;;;;;;;;;;;0.60;99.90;;;;;;8361402;28;19908;-65
2021/11/28 05:43:26;;;;;;;;;;;0.60;99.90;;;;;;8361120;28;19947;-64
2021/11/28 05:47:27;;;;;;;;;;;0.80;99.90;;;;;;8360191;28;19951;-64
2021/11/28 05:51:27;;;;;;;;;;;0.80;99.90;;;;;;8360917;28;19909;-64
2021/11/28 05:55:28;;;;;;;;;;;0.90;99.90;;;;;;8359385;28;20050;-64
2021/11/28 05:59:28;;;;;;;;;;;1.00;99.90;;;;;;8342300;28;19916;-64
2021/11/28 06:03:29;;;;;;;;;;;1.10;99.90;;;;;;8358055;28;19927;-65
2021/11/28 06:07:29;;;;;;;;;;;1.20;99.90;;;;;;8327149;28;19988;-64
2021/11/28 06:11:30;;;;;;;;;;;1.20;99.90;;;;;;8326519;28;19999;-64
2021/11/28 06:15:30;;;;;;;;;;;1.30;99.90;;;;;;8326506;28;20007;-64
2021/11/28 06:19:31;;;;;;;;;;;1.10;99.90;;;;;;8321071;28;19925;-64
2021/11/28 06:23:32;;;;;;;;;;;1.30;99.90;;;;;;8310439;28;20411;-64
2021/11/28 06:27:32;;;;;;;;;;;1.30;99.90;;;;;;8321107;28;19921;-64
2021/11/28 06:31:33;;;;;;;;;;;1.20;99.90;;;;;;8297918;28;19961;-64
2021/11/28 06:35:33;;;;;;;;;;;1.20;99.90;;;;;;8322344;28;19920;-64
2021/11/28 06:39:34;;;;;;;;;;;1.20;99.90;;;;;;8309044;28;19921;-64
2021/11/28 06:43:34;;;;;;;;;;;1.30;99.90;;;;;;8308677;28;20453;-64
2021/11/28 06:47:35;;;;;;;;;;;1.40;99.90;;;;;;8300684;28;19952;-64
2021/11/28 06:51:36;;;;;;;;;;;1.30;99.90;;;;;;8293752;28;19960;-64
2021/11/28 06:55:36;;;;;;;;;;;1.40;99.90;;;;;;8302053;28;19991;-64
2021/11/28 06:59:36;;;;;;;;;;;1.40;99.90;;;;;;8357294;28;19919;-64
2021/11/28 07:03:37;;;;;;;;;;;1.40;99.90;;;;;;8332909;28;19953;-64
2021/11/28 07:07:38;;;;;;;;;;;1.40;99.90;;;;;;8309045;28;19925;-64
2021/11/28 07:11:38;;;;;;;;;;;1.30;99.90;;;;;;8307457;28;20383;-64
2021/11/28 07:15:39;;;;;;;;;;;1.20;99.90;;;;;;8313814;28;20286;-65
2021/11/28 07:19:40;;;;;;;;;;;1.20;99.90;;;;;;8340820;23;20402;-66
2021/11/28 07:23:41;;;;;;;;;;;1.40;99.90;;;;;;8323571;28;20276;-66
2021/11/28 07:27:41;;;;;;;;;;;1.50;99.90;;;;;;8311100;28;20015;-66
2021/11/28 07:31:42;;;;;;;;;;;1.50;99.90;;;;;;8325795;28;19909;-66
2021/11/28 07:35:42;;;;;;;;;;;1.30;99.90;;;;;;8325199;28;19915;-66
2021/11/28 07:39:43;;;;;;;;;;;1.40;99.90;;;;;;8335532;28;19921;-66
2021/11/28 07:43:43;;;;;;;;;;;1.40;99.90;;;;;;8325674;28;20391;-67
2021/11/28 07:47:44;;;;;;;;;;;1.40;99.90;;;;;;8325951;28;19909;-67
2021/11/28 07:51:45;;;;;;;;;;;1.60;99.90;;;;;;8316737;28;19995;-66
2021/11/28 07:55:46;;;;;;;;;;;1.70;99.90;;;;;;8325056;28;19909;-66
2021/11/28 07:59:46;;;;;;;;;;;1.80;99.90;;;;;;8338503;28;19952;-66
2021/11/28 08:03:47;;;;;;;;;;;1.70;99.90;;;;;;8324906;28;20374;-66
2021/11/28 08:07:48;;;;;;;;;;;1.70;99.90;;;;;;8319320;28;19910;-66
2021/11/28 08:11:48;;;;;;;;;;;1.70;99.90;;;;;;8325884;28;20323;-66
2021/11/28 08:15:49;;;;;;;;;;;1.90;99.90;;;;;;8343794;28;19913;-66
2021/11/28 08:19:49;;;;;;;;;;;2.00;99.90;;;;;;8346856;28;19924;-66
2021/11/28 08:23:50;;;;;;;;;;;2.00;99.90;;;;;;8351280;28;19958;-67
2021/11/28 08:27:50;;;;;;;;;;;2.40;99.90;;;;;;8343529;28;19919;-66
2021/11/28 08:31:51;;;;;;;;;;;2.30;99.90;;;;;;8363514;28;19913;-66
2021/11/28 08:35:52;;;;;;;;;;;2.50;99.90;;;;;;8351336;28;20379;-66
2021/11/28 08:39:52;;;;;;;;;;;2.60;99.90;;;;;;8345577;28;19909;-66
2021/11/28 08:43:54;;;;;;;;;;;2.80;99.90;;;;;;8344254;28;19987;-66
2021/11/28 08:47:55;;;;;;;;;;;3.10;99.90;;;;;;8335156;28;19913;-66
2021/11/28 08:51:56;;;;;;;;;;;3.00;99.90;;;;;;8329546;28;19932;-66
2021/11/28 08:55:56;;;;;;;;;;;3.10;99.90;;;;;;8342960;28;20371;-66
2021/11/28 08:59:56;;;;;;;;;;;3.10;99.90;;;;;;8339244;28;19913;-66
2021/11/28 09:03:58;;;;;;;;;;;3.30;99.90;;;;;;8337206;28;19928;-66
2021/11/28 09:08:00;;;;;;;;;;;3.20;99.90;;;;;;8351102;28;20664;-66
2021/11/28 09:12:02;;;;;;;;;;;3.20;99.90;;;;;;8341170;28;19913;-66
2021/11/28 09:16:03;;;;;;;;;;;3.30;99.90;;;;;;8336773;28;19964;-66
2021/11/28 09:20:07;;;;;;;;;;;3.30;99.90;;;;;;8335100;28;19928;-66
2021/11/28 09:28:27;;;;;;;;;;;3.50;99.90;;;;;;8333126;28;20314;-66
2021/11/28 09:32:28;;;;;;;;;;;3.50;99.90;;;;;;8334272;28;20098;-66
2021/11/28 09:36:29;;;;;;;;;;;3.40;99.90;;;;;;8324286;28;19917;-66
2021/11/28 09:40:29;;;;;;;;;;;3.50;99.90;;;;;;8311947;28;19912;-66
2021/11/28 09:44:32;;;;;;;;;;;3.50;99.90;;;;;;8329679;28;19917;-66
2021/11/28 09:48:34;;;;;;;;;;;3.40;99.90;;;;;;8313286;28;19958;-66
2021/11/28 09:52:35;;;;;;;;;;;3.50;99.90;;;;;;8330719;28;19963;-66
2021/11/28 09:56:37;;;;;;;;;;;3.50;99.90;;;;;;8330268;28;19963;-67
2021/11/28 10:00:38;;;;;;;;;;;3.50;99.90;;;;;;8327749;28;19917;-66
2021/11/28 10:04:38;;;;;;;;;;;3.50;99.90;;;;;;8316207;28;19971;-66
2021/11/28 10:08:40;;;;;;;;;;;3.40;99.90;;;;;;8329951;28;19967;-66
2021/11/28 10:12:44;;;;;;;;;;;3.50;99.90;;;;;;8335373;28;19917;-66
2021/11/28 10:16:45;;;;;;;;;;;3.50;99.90;;;;;;8337096;28;20031;-67
2021/11/28 10:20:46;;;;;;;;;;;3.50;99.90;;;;;;8337832;28;20329;-64
2021/11/28 10:24:51;;;;;;;;;;;3.70;99.90;;;;;;8341776;28;20314;-63
2021/11/28 10:29:13;;;;;;;;;;;3.70;99.90;;;;;;8334679;28;19913;-63
2021/11/28 10:33:15;;;;;;;;;;;3.50;99.90;;;;;;8323003;28;20015;-63
2021/11/28 10:37:17;;;;;;;;;;;3.50;99.90;;;;;;8339992;28;19917;-63
2021/11/28 10:41:19;;;;;;;;;;;3.80;99.90;;;;;;8333217;28;20337;-63
2021/11/28 10:45:20;;;;;;;;;;;3.90;99.90;;;;;;8341948;28;20403;-63
2021/11/28 10:49:22;;;;;;;;;;;4.20;99.90;;;;;;8355961;28;19982;-62
2021/11/28 10:53:23;;;;;;;;;;;4.40;99.90;;;;;;8359048;28;19913;-63
2021/11/28 10:57:25;;;;;;;;;;;4.60;99.90;;;;;;8322074;28;20527;-63
2021/11/28 11:01:28;;;;;;;;;;;4.90;99.90;;;;;;8326529;28;19935;-63
2021/11/28 11:05:30;;;;;;;;;;;4.70;99.90;;;;;;8325998;28;19955;-63
2021/11/28 11:09:38;;;;;;;;;;;4.20;99.90;;;;;;8326941;28;19909;-63
2021/11/28 11:13:51;;;;;;;;;;;4.00;99.90;;;;;;8327392;28;20351;-63
2021/11/28 11:17:56;;;;;;;;;;;4.10;99.90;;;;;;8326816;28;20417;-64
2021/11/28 11:22:03;;;;;;;;;;;4.40;99.90;;;;;;8327185;28;20410;-63
2021/11/28 11:26:10;;;;;;;;;;;4.70;99.90;;;;;;8309189;28;20481;-63
2021/11/28 11:30:12;;;;;;;;;;;4.70;99.90;;;;;;8326114;28;19948;-63
2021/11/28 11:34:23;;;;;;;;;;;4.40;99.90;;;;;;8308850;28;19913;-63
2021/11/28 11:38:25;;;;;;;;;;;4.30;99.90;;;;;;8326676;28;19909;-63
2021/11/28 11:42:27;;;;;;;;;;;4.30;99.90;;;;;;8326472;28;20306;-64
2021/11/28 11:46:28;;;;;;;;;;;4.60;99.90;;;;;;8313018;28;20283;-63
2021/11/28 11:50:30;;;;;;;;;;;4.50;99.90;;;;;;8333017;28;20001;-63
2021/11/28 11:54:32;;;;;;;;;;;4.20;99.90;;;;;;8333016;28;19916;-63
2021/11/28 11:58:37;;;;;;;;;;;4.10;99.90;;;;;;8314196;28;19909;-63
2021/11/28 12:02:42;;;;;;;;;;;3.90;99.90;;;;;;8312508;28;19928;-64
2021/11/28 12:06:45;;;;;;;;;;;3.90;99.90;;;;;;8318323;28;20003;-63
2021/11/28 12:10:45;;;;;;;;;;;3.80;99.90;;;;;;8326901;28;19917;-63
2021/11/28 12:15:12;;;;;;;;;;;3.80;99.90;;;;;;8350308;28;19921;-63
2021/11/28 12:19:31;;;;;;;;;;;3.90;99.90;;;;;;8321984;28;19964;-63
2021/11/28 12:23:52;;;;;;;;;;;3.90;99.90;;;;;;8324193;28;20391;-63
2021/11/28 12:27:53;;;;;;;;;;;4.10;99.90;;;;;;8309616;28;20004;-63
2021/11/28 12:31:53;;;;;;;;;;;4.20;99.90;;;;;;8296831;28;19921;-63
2021/11/28 12:35:54;;;;;;;;;;;4.40;99.90;;;;;;8293071;28;19948;-63
2021/11/28 12:39:56;;;;;;;;;;;4.70;99.90;;;;;;8293156;28;20453;-65
2021/11/28 12:44:05;;;;;;;;;;;4.80;99.90;;;;;;8301916;28;19925;-63
2021/11/28 12:48:26;;;;;;;;;;;5.00;99.90;;;;;;8303760;28;19968;-63
2021/11/28 12:52:28;;;;;;;;;;;5.10;99.90;;;;;;8295462;28;19913;-63
2021/11/28 12:56:29;;;;;;;;;;;5.10;99.90;;;;;;8295354;28;19910;-63
2021/11/28 13:00:31;;;;;;;;;;;5.20;99.90;;;;;;8293418;28;20355;-63
2021/11/28 13:04:40;;;;;;;;;;;5.10;99.90;;;;;;8294205;28;19918;-63
2021/11/28 13:08:40;;;;;;;;;;;5.20;99.90;;;;;;8294190;28;19925;-63
2021/11/28 13:12:42;;;;;;;;;;;6.60;99.90;;;;;;8292542;28;20394;-63
2021/11/28 13:16:42;;;;;;;;;;;9.20;99.90;;;;;;8293187;28;19989;-64
2021/11/28 13:20:43;;;;;;;;;;;11.10;99.90;;;;;;8318533;28;19932;-63
2021/11/28 13:24:44;;;;;;;;;;;9.80;99.90;;;;;;8321317;28;20004;-63
2021/11/28 13:28:45;;;;;;;;;;;7.50;99.90;;;;;;8303982;28;19913;-63
2021/11/28 13:32:46;;;;;;;;;;;6.50;99.90;;;;;;8325283;28;20359;-63
2021/11/28 13:36:53;;;;;;;;;;;6.10;99.90;;;;;;8324570;28;19910;-63
2021/11/28 13:41:13;;;;;;;;;;;5.70;99.90;;;;;;8321962;28;19917;-63
2021/11/28 13:45:14;;;;;;;;;;;5.30;99.90;;;;;;8322067;28;20475;-63
2021/11/28 13:49:16;;;;;;;;;;;5.20;99.90;;;;;;8303238;28;19928;-63
2021/11/28 13:53:17;;;;;;;;;;;5.10;99.90;;;;;;8291084;28;19913;-63
2021/11/28 13:57:22;;;;;;;;;;;5.10;99.90;;;;;;8300244;28;19924;-64
2021/11/28 14:01:22;;;;;;;;;;;5.10;99.90;;;;;;8308912;28;19924;-64
2021/11/28 14:05:23;;;;;;;;;;;4.90;99.90;;;;;;8309697;28;19919;-64
2021/11/28 14:09:24;;;;;;;;;;;4.70;99.90;;;;;;8293222;28;19922;-63
2021/11/28 14:13:26;;;;;;;;;;;4.70;99.90;;;;;;8293500;28;19909;-63
2021/11/28 14:17:27;;;;;;;;;;;4.40;99.90;;;;;;8319130;28;20008;-63
2021/11/28 14:21:39;;;;;;;;;;;4.20;99.90;;;;;;8306705;28;20303;-63
2021/11/28 14:25:41;;;;;;;;;;;4.10;99.90;;;;;;8278757;28;20019;-63
2021/11/28 14:29:42;;;;;;;;;;;4.10;99.90;;;;;;8294956;28;19917;-63
2021/11/28 14:33:51;;;;;;;;;;;4.10;99.90;;;;;;8296580;28;19917;-63
2021/11/28 14:38:11;;;;;;;;;;;4.00;99.90;;;;;;8299158;28;19940;-63
2021/11/28 14:42:16;;;;;;;;;;;3.80;99.90;;;;;;8285188;28;20515;-63
2021/11/28 14:46:23;;;;;;;;;;;3.70;99.90;;;;;;8290388;28;19921;-62
2021/11/28 14:50:23;;;;;;;;;;;3.60;99.90;;;;;;8288618;28;19963;-63
2021/11/28 14:54:26;;;;;;;;;;;3.30;99.90;;;;;;8289890;28;20320;-63
2021/11/28 14:58:47;;;;;;;;;;;3.10;99.90;;;;;;8285094;28;19964;-63
2021/11/28 15:02:48;;;;;;;;;;;3.10;99.90;;;;;;8302575;28;20665;-63
2021/11/28 15:06:53;;;;;;;;;;;2.90;99.90;;;;;;8301270;28;19961;-63
2021/11/28 15:10:55;;;;;;;;;;;2.90;99.90;;;;;;8308399;28;19999;-63
2021/11/28 15:14:59;;;;;;;;;;;2.90;99.90;;;;;;8312875;28;19921;-63
2021/11/28 15:19:00;;;;;;;;;;;2.80;99.90;;;;;;8322611;28;19917;-63
2021/11/28 15:23:02;;;;;;;;;;;2.60;99.90;;;;;;8320816;28;19925;-63
2021/11/28 15:27:02;;;;;;;;;;;2.60;99.90;;;;;;8296180;28;19917;-64
2021/11/28 15:31:04;;;;;;;;;;;2.20;99.90;;;;;;8301478;28;19917;-63
2021/11/28 15:35:08;;;;;;;;;;;2.00;99.90;;;;;;8324640;28;19921;-64
2021/11/28 15:39:09;;;;;;;;;;;2.10;99.90;;;;;;8320998;28;19917;-64
2021/11/28 15:43:11;;;;;;;;;;;2.00;99.90;;;;;;8329243;28;19921;-63
2021/11/28 15:47:12;;;;;;;;;;;2.00;99.90;;;;;;8329981;28;19932;-63
2021/11/28 15:51:13;;;;;;;;;;;2.10;99.90;;;;;;8326711;28;20358;-63
2021/11/28 15:55:14;;;;;;;;;;;2.20;99.90;;;;;;8318319;28;20061;-63
2021/11/28 15:59:15;;;;;;;;;;;2.00;99.90;;;;;;8328305;28;19917;-63
2021/11/28 16:03:16;;;;;;;;;;;2.10;99.90;;;;;;8311395;28;19921;-66
2021/11/28 16:07:17;;;;;;;;;;;2.00;99.90;;;;;;8299090;28;19925;-66
2021/11/28 16:11:18;;;;;;;;;;;1.90;99.90;;;;;;8307549;28;19914;-65
2021/11/28 16:15:18;;;;;;;;;;;1.70;99.90;;;;;;8275054;28;19917;-65
2021/11/28 16:19:19;;;;;;;;;;;1.60;99.90;;;;;;8292118;28;19944;-66
2021/11/28 16:23:19;;;;;;;;;;;1.40;99.90;;;;;;8271241;28;19925;-66
2021/11/28 16:27:20;;;;;;;;;;;1.70;99.90;;;;;;8291658;28;20021;-65
2021/11/28 16:31:21;;;;;;;;;;;1.60;99.90;;;;;;8291596;28;19956;-65
2021/11/28 16:35:21;;;;;;;;;;;1.60;99.90;;;;;;8279851;28;19918;-66
2021/11/28 16:39:22;;;;;;;;;;;1.50;99.90;;;;;;8294459;28;20508;-65
2021/11/28 16:43:22;;;;;;;;;;;1.60;99.90;;;;;;8322061;28;19980;-65
2021/11/28 16:47:23;;;;;;;;;;;1.30;99.90;;;;;;8297199;28;20383;-65
2021/11/28 16:51:26;;;;;;;;;;;1.20;99.90;;;;;;8311174;28;19936;-66
2021/11/28 16:55:27;;;;;;;;;;;1.30;99.90;;;;;;8299874;28;19924;-66
2021/11/28 16:59:28;;;;;;;;;;;1.40;99.90;;;;;;8295125;28;20269;-64
2021/11/28 17:03:29;;;;;;;;;;;1.60;99.90;;;;;;8295842;28;19964;-66
2021/11/28 17:07:30;;;;;;;;;;;1.40;99.90;;;;;;8299105;28;19917;-65
2021/11/28 17:11:30;;;;;;;;;;;1.50;99.90;;;;;;8301390;28;19971;-66
2021/11/28 17:15:31;;;;;;;;;;;1.60;99.90;;;;;;8274986;28;19917;-66
2021/11/28 17:19:31;;;;;;;;;;;1.50;99.90;;;;;;8314768;28;19921;-67
2021/11/28 17:23:32;;;;;;;;;;;1.60;99.90;;;;;;8306143;28;19921;-66
2021/11/28 17:27:32;;;;;;;;;;;1.70;99.90;;;;;;8321757;28;19917;-66
2021/11/28 17:31:33;;;;;;;;;;;1.80;99.90;;;;;;8307557;28;19917;-66
2021/11/28 17:35:34;;;;;;;;;;;1.80;99.90;;;;;;8282789;28;20426;-66
2021/11/28 17:39:34;;;;;;;;;;;1.60;99.90;;;;;;8307422;28;19928;-66
2021/11/28 17:43:35;;;;;;;;;;;1.60;99.90;;;;;;8303128;28;19922;-66
2021/11/28 17:47:36;;;;;;;;;;;1.70;99.90;;;;;;8305473;28;19963;-66
2021/11/28 17:51:36;;;;;;;;;;;1.50;99.90;;;;;;8291452;28;19924;-67
2021/11/28 17:55:37;;;;;;;;;;;1.40;99.90;;;;;;8308964;28;19927;-66
2021/11/28 17:59:38;;;;;;;;;;;1.50;99.90;;;;;;8307652;28;20392;-67
2021/11/28 18:03:38;;;;;;;;;;;1.50;99.90;;;;;;8306318;28;19921;-66
2021/11/28 18:07:39;;;;;;;;;;;1.40;99.90;;;;;;8305944;28;19924;-66
2021/11/28 18:11:40;;;;;;;;;;;1.50;99.90;;;;;;8287853;28;20400;-66
2021/11/28 18:15:41;;;;;;;;;;;1.40;99.90;;;;;;8302328;28;20387;-67
2021/11/28 18:19:41;;;;;;;;;;;1.50;99.90;;;;;;8324075;28;19967;-68
2021/11/28 18:23:42;;;;;;;;;;;1.70;99.90;;;;;;8326151;28;19928;-68
2021/11/28 18:27:42;;;;;;;;;;;1.40;99.90;;;;;;8326985;28;19943;-66
2021/11/28 18:31:43;;;;;;;;;;;1.20;99.90;;;;;;8332287;28;19921;-66
2021/11/28 18:35:43;;;;;;;;;;;1.00;99.90;;;;;;8333471;28;19921;-66
2021/11/28 18:39:44;;;;;;;;;;;0.90;99.90;;;;;;8323105;28;19920;-66
2021/11/28 18:43:45;;;;;;;;;;;0.70;99.90;;;;;;8323997;28;19948;-66
2021/11/28 18:47:45;;;;;;;;;;;0.70;99.90;;;;;;8305377;28;20418;-66
2021/11/28 18:51:46;;;;;;;;;;;0.50;99.90;;;;;;8281654;28;19913;-65
2021/11/28 18:55:47;;;;;;;;;;;0.30;99.90;;;;;;8277487;28;19917;-66
2021/11/28 18:59:47;;;;;;;;;;;0.20;99.90;;;;;;8274750;28;20342;-66
2021/11/28 19:03:48;;;;;;;;;;;0.20;99.90;;;;;;8289138;28;20393;-66
2021/11/28 19:07:49;;;;;;;;;;;0.10;99.90;;;;;;8292083;28;19921;-66
2021/11/28 19:11:49;;;;;;;;;;;-0.20;99.90;;;;;;8292248;28;20334;-66
2021/11/28 19:15:50;;;;;;;;;;;-0.40;99.90;;;;;;8294594;28;19917;-66
2021/11/28 19:19:50;;;;;;;;;;;-0.30;99.90;;;;;;8292608;28;20340;-65
2021/11/28 19:23:51;;;;;;;;;;;0.00;99.90;;;;;;8281018;28;19917;-67
2021/11/28 19:27:52;;;;;;;;;;;0.00;99.90;;;;;;8301836;28;20007;-66
2021/11/28 19:31:53;;;;;;;;;;;-0.30;99.90;;;;;;8289441;28;19964;-66
2021/11/28 19:35:54;;;;;;;;;;;-0.50;99.90;;;;;;8339425;28;19917;-66
2021/11/28 19:39:55;;;;;;;;;;;-0.40;99.90;;;;;;8329489;28;19917;-66
2021/11/28 19:43:59;;;;;;;;;;;-0.30;99.90;;;;;;8322965;28;20303;-66
2021/11/28 19:48:00;;;;;;;;;;;-0.50;99.90;;;;;;8309186;28;19932;-67
2021/11/28 19:52:00;;;;;;;;;;;-0.90;99.90;;;;;;8335045;28;19928;-66
2021/11/28 19:56:01;;;;;;;;;;;-0.90;99.90;;;;;;8332368;28;20276;-66
2021/11/28 20:00:03;;;;;;;;;;;-0.70;99.90;;;;;;8335766;28;19909;-66
2021/11/28 20:04:03;;;;;;;;;;;-0.60;99.90;;;;;;8350700;28;19921;-67
2021/11/28 20:08:04;;;;;;;;;;;-0.70;99.90;;;;;;8343203;28;19975;-66
2021/11/28 20:12:05;;;;;;;;;;;-0.70;99.90;;;;;;8341581;28;19921;-67
2021/11/28 20:16:05;;;;;;;;;;;-0.80;99.90;;;;;;8307503;28;19925;-66
2021/11/28 20:20:07;;;;;;;;;;;-0.90;99.90;;;;;;8301156;28;19944;-66
2021/11/28 20:24:07;;;;;;;;;;;-0.90;99.90;;;;;;8305760;28;19923;-66
2021/11/28 20:28:09;;;;;;;;;;;-0.80;99.90;;;;;;8302278;28;19917;-66
2021/11/28 20:32:10;;;;;;;;;;;-0.90;99.90;;;;;;8291170;28;19917;-66
2021/11/28 20:36:12;;;;;;;;;;;-1.10;99.90;;;;;;8304845;28;19961;-67
2021/11/28 20:40:12;;;;;;;;;;;-1.10;99.90;;;;;;8317464;28;19912;-66
2021/11/28 20:44:14;;;;;;;;;;;-1.00;99.90;;;;;;8324662;28;19960;-66
2021/11/28 20:48:14;;;;;;;;;;;-1.10;99.90;;;;;;8341559;28;20164;-66
2021/11/28 20:52:17;;;;;;;;;;;-1.30;99.90;;;;;;8311178;28;19921;-67
2021/11/28 20:56:21;;;;;;;;;;;-1.20;99.90;;;;;;8310953;28;19913;-66
2021/11/28 21:00:21;;;;;;;;;;;-1.30;99.90;;;;;;8308155;28;20461;-67
2021/11/28 21:04:22;;;;;;;;;;;-1.50;99.90;;;;;;8322148;28;19971;-67
2021/11/28 21:08:22;;;;;;;;;;;-1.50;99.90;;;;;;8336337;28;20378;-66
2021/11/28 21:12:23;;;;;;;;;;;-1.50;99.90;;;;;;8353626;28;19936;-66
2021/11/28 21:16:24;;;;;;;;;;;-1.70;99.90;;;;;;8353854;28;19912;-66
2021/11/28 21:20:27;;;;;;;;;;;-1.80;99.90;;;;;;8324440;28;19960;-66
2021/11/28 21:24:28;;;;;;;;;;;-1.50;99.90;;;;;;8344473;28;19920;-67
2021/11/28 21:28:28;;;;;;;;;;;-1.60;99.90;;;;;;8306509;28;19916;-67
2021/11/28 21:32:29;;;;;;;;;;;-1.60;99.90;;;;;;8307078;28;19913;-67
2021/11/28 21:36:29;;;;;;;;;;;-1.50;99.90;;;;;;8331948;28;19913;-67
2021/11/28 21:40:30;;;;;;;;;;;-1.60;99.90;;;;;;8309100;28;20010;-68
2021/11/28 21:44:33;;;;;;;;;;;-1.50;99.90;;;;;;8322915;28;21317;-67
2021/11/28 21:48:33;;;;;;;;;;;-1.40;99.90;;;;;;8307204;28;19913;-67
2021/11/28 21:52:34;;;;;;;;;;;-1.00;99.90;;;;;;8319892;28;19932;-67
2021/11/28 21:56:35;;;;;;;;;;;-1.00;99.90;;;;;;8345106;28;19920;-67
2021/11/28 22:00:40;;;;;;;;;;;-1.00;99.90;;;;;;8307222;28;19913;-67
2021/11/28 22:04:40;;;;;;;;;;;-0.90;99.90;;;;;;8324996;28;20395;-66
2021/11/28 22:08:41;;;;;;;;;;;-1.00;99.90;;;;;;8325107;28;19913;-67
2021/11/28 22:12:42;;;;;;;;;;;-1.20;99.90;;;;;;8307242;28;19917;-67
2021/11/28 22:16:42;;;;;;;;;;;-0.90;99.90;;;;;;8307543;28;20339;-67
2021/11/28 22:20:43;;;;;;;;;;;-0.80;99.90;;;;;;8324098;28;19921;-67
2021/11/28 22:24:43;;;;;;;;;;;-0.60;99.90;;;;;;8323950;28;19974;-66
2021/11/28 22:28:44;;;;;;;;;;;-0.70;99.90;;;;;;8331278;28;19921;-66
2021/11/28 22:32:45;;;;;;;;;;;-0.50;99.90;;;;;;8330252;28;19916;-67
2021/11/28 22:36:45;;;;;;;;;;;-0.50;99.90;;;;;;8347872;28;19921;-67
2021/11/28 22:40:46;;;;;;;;;;;-0.70;99.90;;;;;;8340503;28;19958;-67
2021/11/28 22:44:47;;;;;;;;;;;-0.70;99.90;;;;;;8317027;28;19921;-67
2021/11/28 22:48:47;;;;;;;;;;;-0.80;99.90;;;;;;8351175;23;19925;-65
2021/11/28 22:52:48;;;;;;;;;;;-0.60;99.90;;;;;;8325239;28;19995;-65
2021/11/28 22:56:48;;;;;;;;;;;-0.70;99.90;;;;;;8340826;28;19909;-65
2021/11/28 23:00:52;;;;;;;;;;;-0.70;99.90;;;;;;8358966;28;19915;-65
2021/11/28 23:04:52;;;;;;;;;;;-0.70;99.90;;;;;;8357625;28;19999;-65
2021/11/28 23:08:53;;;;;;;;;;;-0.70;99.90;;;;;;8359167;28;19913;-65
2021/11/28 23:12:54;;;;;;;;;;;-0.70;99.90;;;;;;8359053;28;19916;-66
2021/11/28 23:16:54;;;;;;;;;;;-0.70;99.90;;;;;;8359209;28;19915;-64
2021/11/28 23:20:55;;;;;;;;;;;-0.80;99.90;;;;;;8358863;28;19996;-65
2021/11/28 23:24:55;;;;;;;;;;;-0.50;99.90;;;;;;8358379;28;19912;-65
2021/11/28 23:28:56;;;;;;;;;;;-0.50;99.90;;;;;;8348588;28;19982;-65
2021/11/28 23:32:57;;;;;;;;;;;-0.50;99.90;;;;;;8358656;28;20378;-65
2021/11/28 23:36:57;;;;;;;;;;;-0.30;99.90;;;;;;8358495;28;19939;-64
2021/11/28 23:40:58;;;;;;;;;;;-0.20;99.90;;;;;;8360084;28;19908;-65
2021/11/28 23:44:59;;;;;;;;;;;-0.10;99.90;;;;;;8365297;28;20371;-65